sensor_id;sensor_type;location;lat;lon;timestamp;temperature;humidity
3548;DHT22;1788;49.400;11.092;2023-12-20T00:00:00;7.90;64.80
3548;DHT22;1788;49.400;11.092;2023-12-20T00:02:27;8.00;65.00
3548;DHT22;1788;49.400;11.092;2023-12-20T00:04:54;8.00;65.10
3548;DHT22;1788;49.400;11.092;2023-12-20T00:07:20;8.00;65.20
3548;DHT22;1788;49.400;11.092;2023-12-20T00:09:47;8.00;65.30
3548;DHT22;1788;49.400;11.092;2023-12-20T00:12:14;8.00;65.40
3548;DHT22;1788;49.400;11.092;2023-12-20T00:14:40;8.00;65.50
3548;DHT22;1788;49.400;11.092;2023-12-20T00:17:07;8.10;65.70
3548;DHT22;1788;49.400;11.092;2023-12-20T00:19:33;8.10;65.80
3548;DHT22;1788;49.400;11.092;2023-12-20T00:22:00;8.10;65.90
3548;DHT22;1788;49.400;11.092;2023-12-20T00:24:27;8.10;65.90
3548;DHT22;1788;49.400;11.092;2023-12-20T00:26:53;8.20;66.90
3548;DHT22;1788;49.400;11.092;2023-12-20T00:29:20;8.10;66.10
3548;DHT22;1788;49.400;11.092;2023-12-20T00:31:46;8.20;66.30
3548;DHT22;1788;49.400;11.092;2023-12-20T00:34:13;8.20;66.40
3548;DHT22;1788;49.400;11.092;2023-12-20T00:36:40;8.20;66.50
3548;DHT22;1788;49.400;11.092;2023-12-20T00:39:06;8.20;66.60
3548;DHT22;1788;49.400;11.092;2023-12-20T00:41:33;8.20;66.70
3548;DHT22;1788;49.400;11.092;2023-12-20T00:43:59;8.20;66.80
3548;DHT22;1788;49.400;11.092;2023-12-20T00:46:26;8.20;66.90
3548;DHT22;1788;49.400;11.092;2023-12-20T00:48:53;8.20;67.00
3548;DHT22;1788;49.400;11.092;2023-12-20T00:51:20;8.20;67.10
3548;DHT22;1788;49.400;11.092;2023-12-20T00:53:46;8.20;67.20
3548;DHT22;1788;49.400;11.092;2023-12-20T00:56:13;8.20;67.30
3548;DHT22;1788;49.400;11.092;2023-12-20T00:58:39;8.20;67.40
3548;DHT22;1788;49.400;11.092;2023-12-20T01:01:07;8.20;67.50
3548;DHT22;1788;49.400;11.092;2023-12-20T01:03:33;8.20;67.50
3548;DHT22;1788;49.400;11.092;2023-12-20T01:06:01;8.20;68.30
3548;DHT22;1788;49.400;11.092;2023-12-20T01:08:28;8.20;67.80
3548;DHT22;1788;49.400;11.092;2023-12-20T01:10:55;8.20;67.80
3548;DHT22;1788;49.400;11.092;2023-12-20T01:13:22;8.20;68.00
3548;DHT22;1788;49.400;11.092;2023-12-20T01:15:49;8.20;68.00
3548;DHT22;1788;49.400;11.092;2023-12-20T01:18:15;8.20;68.00
3548;DHT22;1788;49.400;11.092;2023-12-20T01:20:42;8.20;68.20
3548;DHT22;1788;49.400;11.092;2023-12-20T01:23:09;8.20;68.30
3548;DHT22;1788;49.400;11.092;2023-12-20T01:25:35;8.20;68.30
3548;DHT22;1788;49.400;11.092;2023-12-20T01:28:02;8.20;68.40
3548;DHT22;1788;49.400;11.092;2023-12-20T01:30:28;8.20;68.50
3548;DHT22;1788;49.400;11.092;2023-12-20T01:32:56;8.20;68.80
3548;DHT22;1788;49.400;11.092;2023-12-20T01:35:22;8.20;68.80
3548;DHT22;1788;49.400;11.092;2023-12-20T01:37:49;8.20;68.80
3548;DHT22;1788;49.400;11.092;2023-12-20T01:40:15;8.20;68.90
3548;DHT22;1788;49.400;11.092;2023-12-20T01:42:42;8.20;68.90
3548;DHT22;1788;49.400;11.092;2023-12-20T01:45:10;8.20;68.90
3548;DHT22;1788;49.400;11.092;2023-12-20T01:47:37;8.20;69.10
3548;DHT22;1788;49.400;11.092;2023-12-20T01:50:04;8.20;69.10
3548;DHT22;1788;49.400;11.092;2023-12-20T01:52:31;8.20;69.20
3548;DHT22;1788;49.400;11.092;2023-12-20T01:54:58;8.20;69.20
3548;DHT22;1788;49.400;11.092;2023-12-20T01:57:24;8.20;69.20
3548;DHT22;1788;49.400;11.092;2023-12-20T01:59:51;8.20;69.30
3548;DHT22;1788;49.400;11.092;2023-12-20T02:02:17;8.20;69.30
3548;DHT22;1788;49.400;11.092;2023-12-20T02:04:44;8.20;69.40
3548;DHT22;1788;49.400;11.092;2023-12-20T02:07:11;8.20;69.50
3548;DHT22;1788;49.400;11.092;2023-12-20T02:09:38;8.20;69.50
3548;DHT22;1788;49.400;11.092;2023-12-20T02:12:04;8.20;69.50
3548;DHT22;1788;49.400;11.092;2023-12-20T02:14:30;8.20;69.50
3548;DHT22;1788;49.400;11.092;2023-12-20T02:16:57;8.20;69.50
3548;DHT22;1788;49.400;11.092;2023-12-20T02:19:24;8.10;69.50
3548;DHT22;1788;49.400;11.092;2023-12-20T02:21:50;8.10;69.60
3548;DHT22;1788;49.400;11.092;2023-12-20T02:24:17;8.10;69.60
3548;DHT22;1788;49.400;11.092;2023-12-20T02:26:44;8.00;69.60
3548;DHT22;1788;49.400;11.092;2023-12-20T02:29:11;8.00;69.60
3548;DHT22;1788;49.400;11.092;2023-12-20T02:31:37;8.00;69.60
3548;DHT22;1788;49.400;11.092;2023-12-20T02:34:04;8.00;69.70
3548;DHT22;1788;49.400;11.092;2023-12-20T02:36:31;7.90;69.60
3548;DHT22;1788;49.400;11.092;2023-12-20T02:38:58;7.90;70.50
3548;DHT22;1788;49.400;11.092;2023-12-20T02:41:25;7.80;69.50
3548;DHT22;1788;49.400;11.092;2023-12-20T02:43:51;7.80;69.70
3548;DHT22;1788;49.400;11.092;2023-12-20T02:46:18;7.80;69.80
3548;DHT22;1788;49.400;11.092;2023-12-20T02:48:45;7.80;69.80
3548;DHT22;1788;49.400;11.092;2023-12-20T02:51:11;7.80;69.80
3548;DHT22;1788;49.400;11.092;2023-12-20T02:53:38;7.70;69.80
3548;DHT22;1788;49.400;11.092;2023-12-20T02:56:04;7.70;69.70
3548;DHT22;1788;49.400;11.092;2023-12-20T02:58:32;7.60;69.70
3548;DHT22;1788;49.400;11.092;2023-12-20T03:00:58;7.60;69.70
3548;DHT22;1788;49.400;11.092;2023-12-20T03:03:25;7.50;69.60
3548;DHT22;1788;49.400;11.092;2023-12-20T03:05:52;7.50;69.70
3548;DHT22;1788;49.400;11.092;2023-12-20T03:08:18;7.40;69.70
3548;DHT22;1788;49.400;11.092;2023-12-20T03:10:45;7.30;69.70
3548;DHT22;1788;49.400;11.092;2023-12-20T03:13:12;7.30;69.80
3548;DHT22;1788;49.400;11.092;2023-12-20T03:15:39;7.30;70.00
3548;DHT22;1788;49.400;11.092;2023-12-20T03:18:06;7.30;70.00
3548;DHT22;1788;49.400;11.092;2023-12-20T03:20:32;7.30;70.10
3548;DHT22;1788;49.400;11.092;2023-12-20T03:22:59;7.20;70.00
3548;DHT22;1788;49.400;11.092;2023-12-20T03:25:25;7.20;70.00
3548;DHT22;1788;49.400;11.092;2023-12-20T03:27:53;7.10;69.90
3548;DHT22;1788;49.400;11.092;2023-12-20T03:30:19;7.10;69.90
3548;DHT22;1788;49.400;11.092;2023-12-20T03:32:46;7.10;70.00
3548;DHT22;1788;49.400;11.092;2023-12-20T03:35:13;7.10;70.10
3548;DHT22;1788;49.400;11.092;2023-12-20T03:37:39;7.00;70.00
3548;DHT22;1788;49.400;11.092;2023-12-20T03:40:06;7.00;70.10
3548;DHT22;1788;49.400;11.092;2023-12-20T03:42:32;7.00;70.10
3548;DHT22;1788;49.400;11.092;2023-12-20T03:44:59;7.00;70.30
3548;DHT22;1788;49.400;11.092;2023-12-20T03:47:26;7.00;70.30
3548;DHT22;1788;49.400;11.092;2023-12-20T03:49:52;7.00;70.30
3548;DHT22;1788;49.400;11.092;2023-12-20T03:52:19;7.00;70.30
3548;DHT22;1788;49.400;11.092;2023-12-20T03:54:46;7.00;70.30
3548;DHT22;1788;49.400;11.092;2023-12-20T03:57:13;7.00;70.30
3548;DHT22;1788;49.400;11.092;2023-12-20T03:59:39;7.00;70.30
3548;DHT22;1788;49.400;11.092;2023-12-20T04:02:06;7.00;70.30
3548;DHT22;1788;49.400;11.092;2023-12-20T04:04:33;7.00;70.30
3548;DHT22;1788;49.400;11.092;2023-12-20T04:06:59;7.00;70.40
3548;DHT22;1788;49.400;11.092;2023-12-20T04:09:26;7.00;70.40
3548;DHT22;1788;49.400;11.092;2023-12-20T04:11:52;7.00;70.50
3548;DHT22;1788;49.400;11.092;2023-12-20T04:14:19;7.00;70.50
3548;DHT22;1788;49.400;11.092;2023-12-20T04:16:46;7.00;70.50
3548;DHT22;1788;49.400;11.092;2023-12-20T04:19:12;7.00;70.50
3548;DHT22;1788;49.400;11.092;2023-12-20T04:21:39;7.00;70.50
3548;DHT22;1788;49.400;11.092;2023-12-20T04:24:06;7.00;70.60
3548;DHT22;1788;49.400;11.092;2023-12-20T04:26:33;7.00;70.60
3548;DHT22;1788;49.400;11.092;2023-12-20T04:28:59;7.00;70.60
3548;DHT22;1788;49.400;11.092;2023-12-20T04:31:26;7.00;70.60
3548;DHT22;1788;49.400;11.092;2023-12-20T04:33:53;7.00;71.40
3548;DHT22;1788;49.400;11.092;2023-12-20T04:36:19;7.00;70.60
3548;DHT22;1788;49.400;11.092;2023-12-20T04:38:46;7.00;70.60
3548;DHT22;1788;49.400;11.092;2023-12-20T04:41:13;7.00;70.60
3548;DHT22;1788;49.400;11.092;2023-12-20T04:43:39;7.00;70.70
3548;DHT22;1788;49.400;11.092;2023-12-20T04:46:06;7.00;70.80
3548;DHT22;1788;49.400;11.092;2023-12-20T04:48:33;7.00;70.80
3548;DHT22;1788;49.400;11.092;2023-12-20T04:51:00;7.00;70.80
3548;DHT22;1788;49.400;11.092;2023-12-20T04:53:27;7.10;70.90
3548;DHT22;1788;49.400;11.092;2023-12-20T04:55:54;7.00;71.00
3548;DHT22;1788;49.400;11.092;2023-12-20T04:58:20;7.00;70.80
3548;DHT22;1788;49.400;11.092;2023-12-20T05:00:47;7.00;70.80
3548;DHT22;1788;49.400;11.092;2023-12-20T05:03:13;7.00;70.80
3548;DHT22;1788;49.400;11.092;2023-12-20T05:05:40;7.00;70.80
3548;DHT22;1788;49.400;11.092;2023-12-20T05:08:07;7.00;71.60
3548;DHT22;1788;49.400;11.092;2023-12-20T05:10:33;7.00;70.90
3548;DHT22;1788;49.400;11.092;2023-12-20T05:13:00;7.00;70.90
3548;DHT22;1788;49.400;11.092;2023-12-20T05:15:26;7.00;71.00
3548;DHT22;1788;49.400;11.092;2023-12-20T05:17:53;7.00;71.00
3548;DHT22;1788;49.400;11.092;2023-12-20T05:20:20;7.00;70.90
3548;DHT22;1788;49.400;11.092;2023-12-20T05:22:46;7.00;71.00
3548;DHT22;1788;49.400;11.092;2023-12-20T05:25:13;7.00;71.00
3548;DHT22;1788;49.400;11.092;2023-12-20T05:27:40;7.00;71.00
3548;DHT22;1788;49.400;11.092;2023-12-20T05:30:06;7.00;71.10
3548;DHT22;1788;49.400;11.092;2023-12-20T05:32:34;7.00;71.10
3548;DHT22;1788;49.400;11.092;2023-12-20T05:35:01;6.90;71.00
3548;DHT22;1788;49.400;11.092;2023-12-20T05:37:27;6.90;71.00
3548;DHT22;1788;49.400;11.092;2023-12-20T05:39:54;6.90;71.00
3548;DHT22;1788;49.400;11.092;2023-12-20T05:42:21;6.90;71.00
3548;DHT22;1788;49.400;11.092;2023-12-20T05:44:47;6.90;71.10
3548;DHT22;1788;49.400;11.092;2023-12-20T05:47:14;6.90;71.10
3548;DHT22;1788;49.400;11.092;2023-12-20T05:49:41;6.90;71.20
3548;DHT22;1788;49.400;11.092;2023-12-20T05:52:07;6.90;71.20
3548;DHT22;1788;49.400;11.092;2023-12-20T05:54:34;6.90;71.30
3548;DHT22;1788;49.400;11.092;2023-12-20T05:57:01;6.90;71.30
3548;DHT22;1788;49.400;11.092;2023-12-20T05:59:28;6.90;71.30
3548;DHT22;1788;49.400;11.092;2023-12-20T06:01:54;6.90;71.20
3548;DHT22;1788;49.400;11.092;2023-12-20T06:04:22;6.90;71.30
3548;DHT22;1788;49.400;11.092;2023-12-20T06:06:48;6.90;71.20
3548;DHT22;1788;49.400;11.092;2023-12-20T06:09:15;6.90;71.20
3548;DHT22;1788;49.400;11.092;2023-12-20T06:11:42;6.90;71.20
3548;DHT22;1788;49.400;11.092;2023-12-20T06:14:08;6.90;71.30
3548;DHT22;1788;49.400;11.092;2023-12-20T06:16:35;6.90;71.30
3548;DHT22;1788;49.400;11.092;2023-12-20T06:19:01;6.90;71.30
3548;DHT22;1788;49.400;11.092;2023-12-20T06:21:28;6.90;71.40
3548;DHT22;1788;49.400;11.092;2023-12-20T06:23:54;6.90;71.40
3548;DHT22;1788;49.400;11.092;2023-12-20T06:26:21;6.90;71.40
3548;DHT22;1788;49.400;11.092;2023-12-20T06:28:48;6.80;71.30
3548;DHT22;1788;49.400;11.092;2023-12-20T06:31:16;6.80;71.40
3548;DHT22;1788;49.400;11.092;2023-12-20T06:33:42;6.80;71.40
3548;DHT22;1788;49.400;11.092;2023-12-20T06:38:36;6.80;71.50
3548;DHT22;1788;49.400;11.092;2023-12-20T06:41:03;6.80;71.50
3548;DHT22;1788;49.400;11.092;2023-12-20T06:43:30;6.80;71.50
3548;DHT22;1788;49.400;11.092;2023-12-20T06:45:56;6.80;71.60
3548;DHT22;1788;49.400;11.092;2023-12-20T06:48:23;6.80;71.70
3548;DHT22;1788;49.400;11.092;2023-12-20T06:50:49;6.80;71.70
3548;DHT22;1788;49.400;11.092;2023-12-20T06:53:16;6.80;71.70
3548;DHT22;1788;49.400;11.092;2023-12-20T06:55:43;6.80;71.70
3548;DHT22;1788;49.400;11.092;2023-12-20T06:58:10;6.80;71.50
3548;DHT22;1788;49.400;11.092;2023-12-20T07:00:37;6.80;71.90
3548;DHT22;1788;49.400;11.092;2023-12-20T07:03:03;6.80;71.90
3548;DHT22;1788;49.400;11.092;2023-12-20T07:05:31;6.80;72.00
3548;DHT22;1788;49.400;11.092;2023-12-20T07:07:58;6.80;71.90
3548;DHT22;1788;49.400;11.092;2023-12-20T07:10:25;6.80;72.10
3548;DHT22;1788;49.400;11.092;2023-12-20T07:12:54;6.90;72.30
3548;DHT22;1788;49.400;11.092;2023-12-20T07:15:21;6.90;72.20
3548;DHT22;1788;49.400;11.092;2023-12-20T07:17:48;6.90;72.20
3548;DHT22;1788;49.400;11.092;2023-12-20T07:20:14;6.90;72.20
3548;DHT22;1788;49.400;11.092;2023-12-20T07:22:41;6.90;72.30
3548;DHT22;1788;49.400;11.092;2023-12-20T07:25:08;7.00;72.40
3548;DHT22;1788;49.400;11.092;2023-12-20T07:27:34;7.00;72.40
3548;DHT22;1788;49.400;11.092;2023-12-20T07:30:01;7.00;72.40
3548;DHT22;1788;49.400;11.092;2023-12-20T07:32:27;7.00;72.40
3548;DHT22;1788;49.400;11.092;2023-12-20T07:34:54;7.00;72.50
3548;DHT22;1788;49.400;11.092;2023-12-20T07:37:21;7.10;72.60
3548;DHT22;1788;49.400;11.092;2023-12-20T07:39:48;7.10;72.50
3548;DHT22;1788;49.400;11.092;2023-12-20T07:42:15;7.10;72.60
3548;DHT22;1788;49.400;11.092;2023-12-20T07:44:41;7.10;72.60
3548;DHT22;1788;49.400;11.092;2023-12-20T07:47:08;7.10;72.60
3548;DHT22;1788;49.400;11.092;2023-12-20T07:49:34;7.10;72.60
3548;DHT22;1788;49.400;11.092;2023-12-20T07:52:02;7.10;72.70
3548;DHT22;1788;49.400;11.092;2023-12-20T07:54:28;7.10;72.60
3548;DHT22;1788;49.400;11.092;2023-12-20T07:56:55;7.10;72.70
3548;DHT22;1788;49.400;11.092;2023-12-20T07:59:22;7.20;72.90
3548;DHT22;1788;49.400;11.092;2023-12-20T08:01:48;7.20;72.90
3548;DHT22;1788;49.400;11.092;2023-12-20T08:04:15;7.20;73.00
3548;DHT22;1788;49.400;11.092;2023-12-20T08:06:41;7.20;73.60
3548;DHT22;1788;49.400;11.092;2023-12-20T08:09:08;7.20;73.10
3548;DHT22;1788;49.400;11.092;2023-12-20T08:11:35;7.20;73.00
3548;DHT22;1788;49.400;11.092;2023-12-20T08:14:02;7.30;73.20
3548;DHT22;1788;49.400;11.092;2023-12-20T08:16:29;7.30;73.20
3548;DHT22;1788;49.400;11.092;2023-12-20T08:18:55;7.30;73.20
3548;DHT22;1788;49.400;11.092;2023-12-20T08:21:22;7.30;73.10
3548;DHT22;1788;49.400;11.092;2023-12-20T08:23:48;7.30;73.10
3548;DHT22;1788;49.400;11.092;2023-12-20T08:26:18;7.30;73.20
3548;DHT22;1788;49.400;11.092;2023-12-20T08:28:42;7.30;73.30
3548;DHT22;1788;49.400;11.092;2023-12-20T08:31:13;7.40;73.20
3548;DHT22;1788;49.400;11.092;2023-12-20T08:33:36;7.30;73.20
3548;DHT22;1788;49.400;11.092;2023-12-20T08:36:02;7.40;73.30
3548;DHT22;1788;49.400;11.092;2023-12-20T08:38:29;7.40;73.30
3548;DHT22;1788;49.400;11.092;2023-12-20T08:40:55;7.40;73.30
3548;DHT22;1788;49.400;11.092;2023-12-20T08:43:22;7.40;73.40
3548;DHT22;1788;49.400;11.092;2023-12-20T08:45:49;7.40;73.40
3548;DHT22;1788;49.400;11.092;2023-12-20T08:48:16;7.40;73.40
3548;DHT22;1788;49.400;11.092;2023-12-20T08:50:43;7.40;73.40
3548;DHT22;1788;49.400;11.092;2023-12-20T08:53:09;7.50;73.40
3548;DHT22;1788;49.400;11.092;2023-12-20T08:55:36;7.50;73.30
3548;DHT22;1788;49.400;11.092;2023-12-20T08:58:03;7.50;73.20
3548;DHT22;1788;49.400;11.092;2023-12-20T09:00:31;7.50;73.20
3548;DHT22;1788;49.400;11.092;2023-12-20T09:02:57;7.50;73.20
3548;DHT22;1788;49.400;11.092;2023-12-20T09:05:24;7.50;73.00
3548;DHT22;1788;49.400;11.092;2023-12-20T09:07:51;7.50;72.30
3548;DHT22;1788;49.400;11.092;2023-12-20T09:10:18;7.50;72.80
3548;DHT22;1788;49.400;11.092;2023-12-20T09:12:44;7.50;72.70
3548;DHT22;1788;49.400;11.092;2023-12-20T09:15:11;7.50;72.50
3548;DHT22;1788;49.400;11.092;2023-12-20T09:17:38;7.50;72.40
3548;DHT22;1788;49.400;11.092;2023-12-20T09:20:04;7.50;72.40
3548;DHT22;1788;49.400;11.092;2023-12-20T09:22:31;7.50;72.30
3548;DHT22;1788;49.400;11.092;2023-12-20T09:24:59;7.50;72.30
3548;DHT22;1788;49.400;11.092;2023-12-20T09:27:26;7.60;72.30
3548;DHT22;1788;49.400;11.092;2023-12-20T09:29:53;7.50;72.10
3548;DHT22;1788;49.400;11.092;2023-12-20T09:32:20;7.50;72.00
3548;DHT22;1788;49.400;11.092;2023-12-20T09:34:47;7.60;72.20
3548;DHT22;1788;49.400;11.092;2023-12-20T09:37:14;7.60;72.30
3548;DHT22;1788;49.400;11.092;2023-12-20T09:39:40;7.60;72.40
3548;DHT22;1788;49.400;11.092;2023-12-20T09:42:08;7.80;72.50
3548;DHT22;1788;49.400;11.092;2023-12-20T09:44:36;7.80;72.30
3548;DHT22;1788;49.400;11.092;2023-12-20T09:47:05;7.90;72.10
3548;DHT22;1788;49.400;11.092;2023-12-20T09:49:32;8.00;72.00
3548;DHT22;1788;49.400;11.092;2023-12-20T09:51:59;8.10;71.80
3548;DHT22;1788;49.400;11.092;2023-12-20T09:54:25;8.10;71.50
3548;DHT22;1788;49.400;11.092;2023-12-20T09:56:52;8.30;71.10
3548;DHT22;1788;49.400;11.092;2023-12-20T09:59:19;8.30;71.10
3548;DHT22;1788;49.400;11.092;2023-12-20T10:01:46;8.30;70.80
3548;DHT22;1788;49.400;11.092;2023-12-20T10:04:12;8.40;70.70
3548;DHT22;1788;49.400;11.092;2023-12-20T10:06:40;8.50;70.40
3548;DHT22;1788;49.400;11.092;2023-12-20T10:09:05;8.50;69.90
3548;DHT22;1788;49.400;11.092;2023-12-20T10:11:32;8.50;69.50
3548;DHT22;1788;49.400;11.092;2023-12-20T10:13:59;8.50;69.20
3548;DHT22;1788;49.400;11.092;2023-12-20T10:16:25;8.50;69.00
3548;DHT22;1788;49.400;11.092;2023-12-20T10:18:54;8.50;69.70
3548;DHT22;1788;49.400;11.092;2023-12-20T10:21:21;8.40;68.70
3548;DHT22;1788;49.400;11.092;2023-12-20T10:28:41;8.40;68.10
3548;DHT22;1788;49.400;11.092;2023-12-20T10:31:08;8.40;69.00
3548;DHT22;1788;49.400;11.092;2023-12-20T10:33:36;8.40;67.90
3548;DHT22;1788;49.400;11.092;2023-12-20T10:36:02;8.40;67.70
3548;DHT22;1788;49.400;11.092;2023-12-20T10:38:29;8.30;67.50
3548;DHT22;1788;49.400;11.092;2023-12-20T10:40:56;8.30;67.40
3548;DHT22;1788;49.400;11.092;2023-12-20T10:43:23;8.30;67.40
3548;DHT22;1788;49.400;11.092;2023-12-20T10:45:50;8.30;67.40
3548;DHT22;1788;49.400;11.092;2023-12-20T10:48:17;8.40;67.40
3548;DHT22;1788;49.400;11.092;2023-12-20T10:50:45;8.40;67.10
3548;DHT22;1788;49.400;11.092;2023-12-20T10:53:11;8.40;67.10
3548;DHT22;1788;49.400;11.092;2023-12-20T10:55:38;8.40;66.90
3548;DHT22;1788;49.400;11.092;2023-12-20T11:00:32;8.40;66.60
3548;DHT22;1788;49.400;11.092;2023-12-20T11:03:00;8.40;66.50
3548;DHT22;1788;49.400;11.092;2023-12-20T11:10:21;8.40;66.10
3548;DHT22;1788;49.400;11.092;2023-12-20T11:15:13;8.30;65.90
3548;DHT22;1788;49.400;11.092;2023-12-20T11:17:40;8.30;65.90
3548;DHT22;1788;49.400;11.092;2023-12-20T11:20:07;8.30;65.90
3548;DHT22;1788;49.400;11.092;2023-12-20T11:22:33;8.30;65.90
3548;DHT22;1788;49.400;11.092;2023-12-20T11:27:26;8.30;65.90
3548;DHT22;1788;49.400;11.092;2023-12-20T11:29:53;8.20;65.70
3548;DHT22;1788;49.400;11.092;2023-12-20T11:34:47;8.10;66.50
3548;DHT22;1788;49.400;11.092;2023-12-20T11:37:13;8.10;65.80
3548;DHT22;1788;49.400;11.092;2023-12-20T11:39:40;8.10;65.80
3548;DHT22;1788;49.400;11.092;2023-12-20T11:42:07;8.10;65.90
3548;DHT22;1788;49.400;11.092;2023-12-20T11:44:33;8.10;66.00
3548;DHT22;1788;49.400;11.092;2023-12-20T11:47:00;8.00;65.90
3548;DHT22;1788;49.400;11.092;2023-12-20T11:49:26;8.00;66.00
3548;DHT22;1788;49.400;11.092;2023-12-20T11:51:53;7.90;66.10
3548;DHT22;1788;49.400;11.092;2023-12-20T11:54:20;7.90;66.20
3548;DHT22;1788;49.400;11.092;2023-12-20T11:56:47;7.90;66.30
3548;DHT22;1788;49.400;11.092;2023-12-20T11:59:14;7.90;66.30
3548;DHT22;1788;49.400;11.092;2023-12-20T12:01:47;7.90;67.10
3548;DHT22;1788;49.400;11.092;2023-12-20T12:04:08;7.90;66.30
3548;DHT22;1788;49.400;11.092;2023-12-20T12:06:35;7.90;67.00
3548;DHT22;1788;49.400;11.092;2023-12-20T12:09:02;7.90;66.30
3548;DHT22;1788;49.400;11.092;2023-12-20T12:11:28;7.90;66.30
3548;DHT22;1788;49.400;11.092;2023-12-20T12:13:55;7.90;66.30
3548;DHT22;1788;49.400;11.092;2023-12-20T12:16:22;7.90;66.30
3548;DHT22;1788;49.400;11.092;2023-12-20T12:23:43;8.00;66.40
3548;DHT22;1788;49.400;11.092;2023-12-20T12:26:09;8.00;66.40
3548;DHT22;1788;49.400;11.092;2023-12-20T12:28:37;8.00;66.40
3548;DHT22;1788;49.400;11.092;2023-12-20T12:31:03;8.10;66.40
3548;DHT22;1788;49.400;11.092;2023-12-20T12:33:31;8.10;66.30
3548;DHT22;1788;49.400;11.092;2023-12-20T12:35:57;8.20;66.20
3548;DHT22;1788;49.400;11.092;2023-12-20T12:38:24;8.20;66.00
3548;DHT22;1788;49.400;11.092;2023-12-20T12:40:51;8.20;65.80
3548;DHT22;1788;49.400;11.092;2023-12-20T12:43:17;8.20;65.80
3548;DHT22;1788;49.400;11.092;2023-12-20T12:45:44;8.20;65.80
3548;DHT22;1788;49.400;11.092;2023-12-20T12:48:11;8.20;65.90
3548;DHT22;1788;49.400;11.092;2023-12-20T12:50:37;8.30;66.20
3548;DHT22;1788;49.400;11.092;2023-12-20T12:53:05;8.40;66.00
3548;DHT22;1788;49.400;11.092;2023-12-20T12:55:32;8.30;65.80
3548;DHT22;1788;49.400;11.092;2023-12-20T12:57:59;8.30;65.60
3548;DHT22;1788;49.400;11.092;2023-12-20T13:00:26;8.30;65.60
3548;DHT22;1788;49.400;11.092;2023-12-20T13:02:54;8.30;65.60
3548;DHT22;1788;49.400;11.092;2023-12-20T13:05:20;8.30;65.60
3548;DHT22;1788;49.400;11.092;2023-12-20T13:07:47;8.30;65.50
3548;DHT22;1788;49.400;11.092;2023-12-20T13:10:13;8.40;65.50
3548;DHT22;1788;49.400;11.092;2023-12-20T13:12:40;8.40;65.50
3548;DHT22;1788;49.400;11.092;2023-12-20T13:15:07;8.40;65.50
3548;DHT22;1788;49.400;11.092;2023-12-20T13:17:35;8.40;66.10
3548;DHT22;1788;49.400;11.092;2023-12-20T13:20:02;8.40;65.30
3548;DHT22;1788;49.400;11.092;2023-12-20T13:22:28;8.40;65.10
3548;DHT22;1788;49.400;11.092;2023-12-20T13:24:57;8.40;65.00
3548;DHT22;1788;49.400;11.092;2023-12-20T13:27:24;8.40;64.90
3548;DHT22;1788;49.400;11.092;2023-12-20T13:29:51;8.30;65.00
3548;DHT22;1788;49.400;11.092;2023-12-20T13:32:17;8.30;65.10
3548;DHT22;1788;49.400;11.092;2023-12-20T13:34:44;8.30;65.20
3548;DHT22;1788;49.400;11.092;2023-12-20T13:37:11;8.30;65.10
3548;DHT22;1788;49.400;11.092;2023-12-20T13:39:38;8.30;64.90
3548;DHT22;1788;49.400;11.092;2023-12-20T13:42:04;8.30;64.80
3548;DHT22;1788;49.400;11.092;2023-12-20T13:44:31;8.30;64.70
3548;DHT22;1788;49.400;11.092;2023-12-20T13:46:58;8.30;64.60
3548;DHT22;1788;49.400;11.092;2023-12-20T13:49:26;8.20;64.80
3548;DHT22;1788;49.400;11.092;2023-12-20T13:51:53;8.20;64.50
3548;DHT22;1788;49.400;11.092;2023-12-20T13:54:19;8.20;64.30
3548;DHT22;1788;49.400;11.092;2023-12-20T13:56:45;8.20;64.30
3548;DHT22;1788;49.400;11.092;2023-12-20T13:59:12;8.10;64.20
3548;DHT22;1788;49.400;11.092;2023-12-20T14:01:39;8.10;64.30
3548;DHT22;1788;49.400;11.092;2023-12-20T14:04:05;8.00;64.20
3548;DHT22;1788;49.400;11.092;2023-12-20T14:06:33;8.00;64.20
3548;DHT22;1788;49.400;11.092;2023-12-20T14:09:00;8.00;64.30
3548;DHT22;1788;49.400;11.092;2023-12-20T14:11:28;7.90;64.30
3548;DHT22;1788;49.400;11.092;2023-12-20T14:13:54;7.90;64.30
3548;DHT22;1788;49.400;11.092;2023-12-20T14:16:21;7.90;64.30
3548;DHT22;1788;49.400;11.092;2023-12-20T14:18:48;7.90;64.30
3548;DHT22;1788;49.400;11.092;2023-12-20T14:21:15;7.90;64.30
3548;DHT22;1788;49.400;11.092;2023-12-20T14:23:42;7.90;64.30
3548;DHT22;1788;49.400;11.092;2023-12-20T14:26:08;7.90;64.20
3548;DHT22;1788;49.400;11.092;2023-12-20T14:28:35;7.90;64.20
3548;DHT22;1788;49.400;11.092;2023-12-20T14:31:02;7.90;64.10
3548;DHT22;1788;49.400;11.092;2023-12-20T14:33:28;7.80;64.00
3548;DHT22;1788;49.400;11.092;2023-12-20T14:35:55;7.80;64.30
3548;DHT22;1788;49.400;11.092;2023-12-20T14:38:21;8.10;65.60
3548;DHT22;1788;49.400;11.092;2023-12-20T14:40:48;8.30;66.20
3548;DHT22;1788;49.400;11.092;2023-12-20T14:43:15;8.50;65.80
3548;DHT22;1788;49.400;11.092;2023-12-20T14:45:41;8.60;65.00
3548;DHT22;1788;49.400;11.092;2023-12-20T14:48:10;8.50;64.50
3548;DHT22;1788;49.400;11.092;2023-12-20T14:50:36;8.40;64.30
3548;DHT22;1788;49.400;11.092;2023-12-20T14:53:03;8.30;64.20
3548;DHT22;1788;49.400;11.092;2023-12-20T14:55:30;8.20;64.30
3548;DHT22;1788;49.400;11.092;2023-12-20T14:57:56;8.20;64.30
3548;DHT22;1788;49.400;11.092;2023-12-20T15:00:24;8.00;64.20
3548;DHT22;1788;49.400;11.092;2023-12-20T15:02:52;8.00;64.20
3548;DHT22;1788;49.400;11.092;2023-12-20T15:05:19;7.90;64.20
3548;DHT22;1788;49.400;11.092;2023-12-20T15:07:46;7.90;64.40
3548;DHT22;1788;49.400;11.092;2023-12-20T15:10:12;7.90;64.60
3548;DHT22;1788;49.400;11.092;2023-12-20T15:12:39;7.80;64.50
3548;DHT22;1788;49.400;11.092;2023-12-20T15:15:06;7.80;64.50
3548;DHT22;1788;49.400;11.092;2023-12-20T15:17:32;7.70;64.40
3548;DHT22;1788;49.400;11.092;2023-12-20T15:19:59;7.70;64.40
3548;DHT22;1788;49.400;11.092;2023-12-20T15:22:26;7.70;64.50
3548;DHT22;1788;49.400;11.092;2023-12-20T15:24:54;7.60;64.40
3548;DHT22;1788;49.400;11.092;2023-12-20T15:27:21;7.60;64.40
3548;DHT22;1788;49.400;11.092;2023-12-20T15:29:48;7.60;64.50
3548;DHT22;1788;49.400;11.092;2023-12-20T15:32:15;7.50;64.40
3548;DHT22;1788;49.400;11.092;2023-12-20T15:34:42;7.50;64.50
3548;DHT22;1788;49.400;11.092;2023-12-20T15:37:09;7.50;64.50
3548;DHT22;1788;49.400;11.092;2023-12-20T15:39:36;7.50;64.50
3548;DHT22;1788;49.400;11.092;2023-12-20T15:42:03;7.40;64.40
3548;DHT22;1788;49.400;11.092;2023-12-20T15:44:30;7.40;64.40
3548;DHT22;1788;49.400;11.092;2023-12-20T15:46:57;7.40;64.50
3548;DHT22;1788;49.400;11.092;2023-12-20T15:49:24;7.40;64.50
3548;DHT22;1788;49.400;11.092;2023-12-20T15:51:50;7.40;64.50
3548;DHT22;1788;49.400;11.092;2023-12-20T15:54:17;7.40;64.50
3548;DHT22;1788;49.400;11.092;2023-12-20T15:56:43;7.30;64.40
3548;DHT22;1788;49.400;11.092;2023-12-20T15:59:10;7.30;64.40
3548;DHT22;1788;49.400;11.092;2023-12-20T16:01:37;7.30;64.40
3548;DHT22;1788;49.400;11.092;2023-12-20T16:04:03;7.30;64.40
3548;DHT22;1788;49.400;11.092;2023-12-20T16:06:31;7.30;64.50
3548;DHT22;1788;49.400;11.092;2023-12-20T16:08:57;7.30;64.50
3548;DHT22;1788;49.400;11.092;2023-12-20T16:11:24;7.30;64.50
3548;DHT22;1788;49.400;11.092;2023-12-20T16:13:50;7.30;64.40
3548;DHT22;1788;49.400;11.092;2023-12-20T16:16:17;7.40;64.40
3548;DHT22;1788;49.400;11.092;2023-12-20T16:18:44;7.40;64.40
3548;DHT22;1788;49.400;11.092;2023-12-20T16:21:11;7.40;64.40
3548;DHT22;1788;49.400;11.092;2023-12-20T16:23:37;7.40;64.50